Time;durP1;ratioP1;P1;durP2;ratioP2;P2;SDS_P1;SDS_P2;PMS_P1;PMS_P2;Temp;Humidity;BMP_temperature;BMP_pressure;BME280_temperature;BME280_humidity;BME280_pressure;Samples;Min_cycle;Max_cycle;Signal;HPM_P1;HPM_P2
2023/06/14 00:00:24;;;;;;;;;8.00;7.00;;;;;23.52;43.22;101137.89;112170;1263;20799;-42
2023/06/14 00:03:17;;;;;;;;;8.33;8.00;;;;;23.52;43.18;101135.36;112230;1257;22617;-40
2023/06/14 00:05:46;;;;;;;;;10.67;8.67;;;;;23.51;43.28;101140.13;112141;1263;19535;-39
2023/06/14 00:08:13;;;;;;;;;9.00;9.00;;;;;23.52;43.35;101135.29;112159;1263;20352;-39
2023/06/14 00:10:41;;;;;;;;;9.00;7.00;;;;;23.52;43.37;101131.46;112229;1263;20869;-39
2023/06/14 00:13:09;;;;;;;;;9.00;9.00;;;;;23.52;43.42;101123.46;112138;1263;19953;-39
2023/06/14 00:15:36;;;;;;;;;6.00;6.00;;;;;23.52;43.54;101116.38;112288;1257;18579;-39
2023/06/14 00:18:04;;;;;;;;;8.00;8.00;;;;;23.52;43.47;101102.16;112151;1263;19356;-39
2023/06/14 00:20:32;;;;;;;;;11.00;9.00;;;;;23.52;43.50;101090.66;112312;1263;18484;-40
2023/06/14 00:23:00;;;;;;;;;8.00;8.00;;;;;23.52;43.56;101093.84;112137;1263;20028;-39
2023/06/14 00:25:27;;;;;;;;;8.67;8.00;;;;;23.53;43.47;101099.14;112251;1248;19244;-39
2023/06/14 00:27:54;;;;;;;;;9.00;7.33;;;;;23.52;43.74;101098.46;112151;1247;21122;-39
2023/06/14 00:30:22;;;;;;;;;8.00;8.00;;;;;23.51;43.80;101089.23;112272;1263;19908;-39
2023/06/14 00:32:49;;;;;;;;;11.00;8.00;;;;;23.51;44.01;101085.58;112143;1247;19640;-41
2023/06/14 00:35:17;;;;;;;;;8.00;8.00;;;;;23.52;44.08;101089.48;112263;1263;19895;-39
2023/06/14 00:37:44;;;;;;;;;9.00;9.00;;;;;23.53;44.10;101099.31;112114;1263;20305;-39
2023/06/14 00:40:12;;;;;;;;;7.00;7.00;;;;;23.52;44.08;101101.41;112268;1247;19678;-40
2023/06/14 00:42:39;;;;;;;;;7.50;7.50;;;;;23.51;44.23;101101.27;112158;1247;19663;-40
2023/06/14 00:45:07;;;;;;;;;10.00;8.50;;;;;23.52;44.12;101091.35;112271;1263;18946;-39
2023/06/14 00:47:35;;;;;;;;;8.00;8.00;;;;;23.51;44.45;101081.95;112104;1256;21508;-40
2023/06/14 00:50:02;;;;;;;;;8.00;7.00;;;;;23.51;44.55;101078.91;112247;1263;19987;-40
2023/06/14 00:52:29;;;;;;;;;8.67;8.00;;;;;23.51;44.71;101074.70;112119;1263;19859;-40
2023/06/14 00:54:57;;;;;;;;;8.00;8.00;;;;;23.51;44.66;101074.33;112241;1263;20846;-40
2023/06/14 00:57:24;;;;;;;;;11.00;6.00;;;;;23.50;44.82;101070.95;112006;1263;185233;-40
2023/06/14 00:59:52;;;;;;;;;8.00;8.00;;;;;23.51;44.81;101074.36;112240;1263;18989;-41
2023/06/14 01:02:19;;;;;;;;;8.00;8.00;;;;;23.50;44.92;101071.33;112133;1263;19665;-39
2023/06/14 01:04:47;;;;;;;;;11.00;9.00;;;;;23.50;45.01;101068.38;112252;1263;19879;-39
2023/06/14 01:07:15;;;;;;;;;9.00;9.00;;;;;23.50;45.23;101068.42;112097;1263;20354;-39
2023/06/14 01:09:42;;;;;;;;;8.00;8.00;;;;;23.50;45.19;101069.69;112196;1263;20691;-39
2023/06/14 01:12:10;;;;;;;;;11.00;9.00;;;;;23.50;45.40;101064.27;112124;1247;19572;-39
2023/06/14 01:14:37;;;;;;;;;8.00;8.00;;;;;23.51;45.14;101065.44;112252;1263;18634;-39
2023/06/14 01:17:05;;;;;;;;;9.00;9.00;;;;;23.50;45.26;101065.65;112094;1247;22061;-39
2023/06/14 01:19:34;;;;;;;;;7.00;7.00;;;;;23.50;45.23;101068.38;112230;1263;18145;-39
2023/06/14 01:22:01;;;;;;;;;7.33;6.67;;;;;23.51;45.45;101064.89;112203;1263;18580;-40
2023/06/14 01:24:31;;;;;;;;;9.00;8.50;;;;;23.50;45.41;101063.16;112151;1263;21045;-39
2023/06/14 01:26:59;;;;;;;;;7.50;7.50;;;;;23.51;45.49;101063.97;112159;1255;19790;-39
2023/06/14 01:29:27;;;;;;;;;9.00;9.00;;;;;23.50;45.48;101057.18;112353;1263;22189;-40
2023/06/14 01:31:55;;;;;;;;;8.00;8.00;;;;;23.50;45.44;101059.26;112141;1263;20821;-39
2023/06/14 01:34:22;;;;;;;;;8.00;8.00;;;;;23.50;45.35;101059.80;112245;1247;18533;-39
2023/06/14 01:36:50;;;;;;;;;6.00;6.00;;;;;23.50;45.35;101055.42;112175;1263;19067;-39
2023/06/14 01:39:17;;;;;;;;;6.67;6.00;;;;;23.51;45.54;101053.41;112260;1263;20891;-40
2023/06/14 01:41:44;;;;;;;;;9.00;9.00;;;;;23.50;45.55;101047.64;112154;1248;19603;-39
2023/06/14 01:44:12;;;;;;;;;9.00;9.00;;;;;23.50;45.54;101044.48;112274;1263;19341;-39
2023/06/14 01:46:39;;;;;;;;;8.00;8.00;;;;;23.50;45.52;101041.20;112098;1263;19510;-39
2023/06/14 01:49:07;;;;;;;;;10.33;8.00;;;;;23.50;45.69;101031.42;112206;1263;20667;-39
2023/06/14 01:51:35;;;;;;;;;6.00;6.00;;;;;23.50;45.56;101030.00;112169;1263;18820;-40
2023/06/14 01:54:02;;;;;;;;;9.00;8.67;;;;;23.49;45.82;101027.30;112216;1263;19553;-39
2023/06/14 01:56:30;;;;;;;;;13.00;11.00;;;;;23.51;45.76;101020.20;112100;1263;18480;-39
2023/06/14 01:58:58;;;;;;;;;6.00;6.00;;;;;23.50;45.81;101021.45;112181;1263;19998;-39
2023/06/14 02:01:26;;;;;;;;;9.00;9.00;;;;;23.49;45.95;101018.96;112114;1257;19288;-38
2023/06/14 02:03:54;;;;;;;;;8.50;8.50;;;;;23.48;46.12;101019.95;112144;1263;18575;-38
2023/06/14 02:06:21;;;;;;;;;11.00;11.00;;;;;23.49;45.91;101023.17;112317;1247;21296;-38
2023/06/14 02:08:49;;;;;;;;;11.00;11.00;;;;;23.49;46.13;101018.63;112133;1263;20865;-38
2023/06/14 02:11:16;;;;;;;;;12.00;12.00;;;;;23.48;46.09;101016.88;112304;1263;18585;-38
2023/06/14 02:13:44;;;;;;;;;13.00;12.00;;;;;23.47;46.09;101019.89;112151;1263;20435;-38
2023/06/14 02:16:12;;;;;;;;;11.00;9.00;;;;;23.47;46.10;101019.21;112296;1263;21356;-37
2023/06/14 02:18:39;;;;;;;;;11.00;11.00;;;;;23.47;46.24;101018.79;112130;1263;19974;-38
2023/06/14 02:21:07;;;;;;;;;12.00;11.00;;;;;23.47;46.09;101019.89;112211;1247;20129;-38
2023/06/14 02:23:35;;;;;;;;;11.00;9.00;;;;;23.48;46.22;101024.02;112160;1255;19619;-38
2023/06/14 02:26:02;;;;;;;;;12.00;11.00;;;;;23.47;46.28;101026.45;112254;1263;20294;-38
2023/06/14 02:28:30;;;;;;;;;11.00;11.00;;;;;23.47;46.35;101028.64;112098;1263;18895;-38
2023/06/14 02:30:57;;;;;;;;;12.33;12.33;;;;;23.46;46.29;101030.64;112246;1263;20706;-38
2023/06/14 02:33:25;;;;;;;;;11.00;11.00;;;;;23.45;46.22;101029.38;112138;1263;20224;-38
2023/06/14 02:35:53;;;;;;;;;11.00;11.00;;;;;23.46;46.28;101023.83;112215;1263;18655;-38
2023/06/14 02:38:21;;;;;;;;;13.00;12.50;;;;;23.45;46.34;101023.02;112083;1263;20888;-38
2023/06/14 02:40:48;;;;;;;;;15.50;13.50;;;;;23.45;46.25;101022.02;112171;1247;19947;-38
2023/06/14 02:43:17;;;;;;;;;13.00;12.00;;;;;23.45;46.35;101016.11;112088;1263;20350;-38
2023/06/14 02:45:45;;;;;;;;;11.00;11.00;;;;;23.45;46.43;101016.70;112165;1263;20699;-38
2023/06/14 02:48:12;;;;;;;;;15.00;13.00;;;;;23.45;46.35;101018.00;112225;1263;20267;-38
2023/06/14 02:50:40;;;;;;;;;12.00;12.00;;;;;23.44;46.34;101014.84;112137;1263;18895;-38
2023/06/14 02:53:07;;;;;;;;;11.67;10.33;;;;;23.44;46.41;101017.84;112210;1263;19483;-38
2023/06/14 02:55:39;;;;;;;;;13.50;12.00;;;;;23.44;46.37;101014.93;112169;1263;19963;-38
2023/06/14 02:58:07;;;;;;;;;14.33;13.00;;;;;23.43;46.44;101019.25;112119;1263;21629;-37
2023/06/14 03:00:35;;;;;;;;;16.00;15.00;;;;;23.43;46.38;101024.73;112132;1248;22161;-38
2023/06/14 03:03:02;;;;;;;;;15.00;15.00;;;;;23.44;46.45;101024.30;112260;1247;20333;-39
2023/06/14 03:05:30;;;;;;;;;12.00;12.00;;;;;23.43;46.59;101027.50;112147;1263;19997;-38
2023/06/14 03:07:57;;;;;;;;;16.00;16.00;;;;;23.43;46.52;101031.50;112189;1263;21801;-38
2023/06/14 03:10:28;;;;;;;;;15.00;15.00;;;;;23.43;46.44;101034.23;112122;1247;21575;-39
2023/06/14 03:12:55;;;;;;;;;15.00;15.00;;;;;23.43;46.57;101035.30;112077;1263;20268;-39
2023/06/14 03:15:24;;;;;;;;;13.00;13.00;;;;;23.43;46.35;101037.52;112167;1263;20887;-39
2023/06/14 03:17:53;;;;;;;;;15.00;12.00;;;;;23.43;46.27;101038.06;112271;1257;20069;-39
2023/06/14 03:20:21;;;;;;;;;13.33;12.67;;;;;23.43;46.37;101041.52;112024;1263;19011;-40
2023/06/14 03:22:48;;;;;;;;;15.00;13.00;;;;;23.44;46.38;101039.84;112184;1248;19449;-39
2023/06/14 03:25:15;;;;;;;;;12.00;12.00;;;;;23.43;46.53;101042.58;112087;1263;19046;-39
2023/06/14 03:27:43;;;;;;;;;14.00;14.00;;;;;23.43;46.60;101046.09;112197;1263;21619;-38
2023/06/14 03:30:10;;;;;;;;;15.00;15.00;;;;;23.43;46.52;101045.94;112085;1247;19813;-39
2023/06/14 03:32:38;;;;;;;;;19.00;18.00;;;;;23.43;46.51;101049.21;112211;1263;19875;-39
2023/06/14 03:35:05;;;;;;;;;13.00;13.00;;;;;23.43;46.55;101047.02;112099;1263;20049;-38
2023/06/14 03:37:33;;;;;;;;;12.50;11.50;;;;;23.43;46.59;101051.06;112186;1263;20923;-39
2023/06/14 03:40:01;;;;;;;;;15.00;15.00;;;;;23.43;46.59;101047.95;112118;1247;19134;-38
2023/06/14 03:42:28;;;;;;;;;16.00;15.00;;;;;23.43;46.61;101046.69;112173;1263;19994;-39
2023/06/14 03:44:56;;;;;;;;;12.00;12.00;;;;;23.42;46.56;101044.88;112025;1263;21846;-39
2023/06/14 03:47:23;;;;;;;;;13.00;13.00;;;;;23.43;46.45;101048.52;112136;1263;21255;-38
2023/06/14 03:49:51;;;;;;;;;15.00;15.00;;;;;23.43;46.65;101055.61;112073;1263;20209;-39
2023/06/14 03:52:18;;;;;;;;;13.33;12.67;;;;;23.43;46.52;101055.27;112157;1263;21849;-39
2023/06/14 03:54:46;;;;;;;;;18.00;16.00;;;;;23.43;46.57;101063.47;112089;1263;19975;-39
2023/06/14 03:57:13;;;;;;;;;13.00;13.00;;;;;23.42;46.58;101066.96;112172;1247;18942;-39
2023/06/14 03:59:41;;;;;;;;;15.00;12.00;;;;;23.42;46.66;101071.52;112091;1263;19680;-39
2023/06/14 04:02:09;;;;;;;;;15.00;15.00;;;;;23.42;46.77;101073.77;112181;1247;19987;-39
2023/06/14 04:04:36;;;;;;;;;16.00;16.00;;;;;23.42;46.65;101068.09;112271;1247;20180;-39
2023/06/14 04:07:04;;;;;;;;;15.00;15.00;;;;;23.42;46.67;101062.83;112104;1263;21877;-39
2023/06/14 04:09:31;;;;;;;;;18.00;15.00;;;;;23.42;46.77;101058.04;112276;1263;20057;-39
2023/06/14 04:11:59;;;;;;;;;15.33;15.00;;;;;23.42;46.83;101062.62;112106;1263;18702;-39
2023/06/14 04:14:26;;;;;;;;;17.00;16.00;;;;;23.41;46.85;101060.71;112300;1247;20813;-39
2023/06/14 04:16:54;;;;;;;;;16.33;15.00;;;;;23.42;46.72;101063.71;112128;1263;20998;-39
2023/06/14 04:19:21;;;;;;;;;13.00;12.50;;;;;23.42;46.69;101062.31;112231;1247;19061;-39
2023/06/14 04:21:48;;;;;;;;;15.50;15.00;;;;;23.42;46.86;101059.88;112155;1247;21157;-39
2023/06/14 04:24:16;;;;;;;;;18.00;15.00;;;;;23.42;46.77;101050.65;112229;1247;18747;-39
2023/06/14 04:26:44;;;;;;;;;17.67;15.00;;;;;23.42;46.83;101050.17;112154;1247;18905;-39
2023/06/14 04:29:14;;;;;;;;;15.00;12.33;;;;;23.42;46.90;101050.58;112299;1256;19331;-39
2023/06/14 04:31:41;;;;;;;;;15.50;15.00;;;;;23.41;46.88;101048.53;112280;1247;20250;-40
2023/06/14 04:34:16;;;;;;;;;15.00;15.00;;;;;23.41;46.80;101050.15;112132;1263;18798;-39
2023/06/14 04:36:49;;;;;;;;;12.00;12.00;;;;;23.42;46.73;101064.30;112176;1256;19357;-39
2023/06/14 04:39:17;;;;;;;;;15.00;12.00;;;;;23.42;46.85;101062.10;112288;1263;18782;-39
2023/06/14 04:41:45;;;;;;;;;15.00;13.00;;;;;23.42;46.74;101055.04;112112;1257;20339;-39
2023/06/14 04:44:12;;;;;;;;;12.33;12.33;;;;;23.42;46.86;101067.03;112249;1263;21085;-39
2023/06/14 04:46:45;;;;;;;;;15.00;14.50;;;;;23.41;47.03;101072.44;112136;1263;20154;-39
2023/06/14 04:49:15;;;;;;;;;22.00;20.00;;;;;23.33;47.09;101073.83;112176;1263;20404;-39
2023/06/14 04:51:42;;;;;;;;;23.33;20.67;;;;;22.85;48.30;101072.37;112255;1247;20746;-39
2023/06/14 04:54:13;;;;;;;;;24.67;22.33;;;;;22.36;49.48;101070.79;112124;1248;20285;-39
2023/06/14 04:56:42;;;;;;;;;20.00;20.00;;;;;22.11;50.42;101068.73;112084;1263;18692;-39
2023/06/14 04:59:11;;;;;;;;;21.00;19.00;;;;;22.12;50.95;101067.54;112136;1247;20771;-39
2023/06/14 05:01:39;;;;;;;;;24.67;21.67;;;;;22.08;51.38;101066.13;112154;1263;20274;-39
2023/06/14 05:04:06;;;;;;;;;24.50;22.50;;;;;22.16;51.43;101066.90;112263;1247;20287;-39
2023/06/14 05:06:33;;;;;;;;;21.50;18.50;;;;;22.11;51.65;101062.00;112113;1263;20947;-39
2023/06/14 05:09:01;;;;;;;;;24.00;22.00;;;;;22.06;51.92;101060.36;112224;1247;21294;-38
2023/06/14 05:11:29;;;;;;;;;25.33;24.00;;;;;21.95;52.27;101052.02;112144;1263;20098;-38
2023/06/14 05:13:58;;;;;;;;;29.50;24.00;;;;;21.95;52.70;101049.67;112328;1263;20533;-38
2023/06/14 05:16:27;;;;;;;;;25.00;22.00;;;;;21.93;52.83;101048.27;112125;1263;18929;-38
2023/06/14 05:18:55;;;;;;;;;27.50;24.50;;;;;21.90;53.11;101046.48;112155;1263;18739;-39
2023/06/14 05:21:22;;;;;;;;;28.00;28.00;;;;;21.80;53.67;101041.95;112247;1262;19420;-38
2023/06/14 05:23:50;;;;;;;;;30.50;27.50;;;;;21.72;53.61;101040.82;112126;1248;18898;-38
2023/06/14 05:26:18;;;;;;;;;34.67;29.00;;;;;21.65;53.58;101036.02;112210;1263;18924;-39
2023/06/14 05:28:45;;;;;;;;;26.00;24.00;;;;;21.71;53.34;101035.91;112115;1263;21154;-39
2023/06/14 05:31:13;;;;;;;;;30.00;27.00;;;;;21.75;53.20;101041.42;112205;1263;18587;-38
2023/06/14 05:33:40;;;;;;;;;36.00;30.00;;;;;21.73;53.12;101039.70;112143;1263;20483;-39
2023/06/14 05:36:07;;;;;;;;;31.33;30.67;;;;;21.75;53.16;101047.77;112232;1263;20789;-37
2023/06/14 05:38:35;;;;;;;;;26.00;23.50;;;;;21.82;53.45;101046.77;112142;1248;20256;-38
2023/06/14 05:41:03;;;;;;;;;25.00;24.00;;;;;22.37;51.93;101045.17;112236;1263;18949;-39
2023/06/14 05:43:31;;;;;;;;;25.00;23.00;;;;;22.47;51.62;101045.92;112139;1247;19569;-38
2023/06/14 05:45:59;;;;;;;;;24.00;24.00;;;;;22.54;51.41;101044.45;112133;1263;20213;-38
2023/06/14 05:48:26;;;;;;;;;21.50;21.00;;;;;22.82;50.73;101046.16;112295;1262;18938;-38
2023/06/14 05:50:54;;;;;;;;;22.00;21.00;;;;;22.99;50.33;101049.84;112143;1248;21098;-38
2023/06/14 05:53:21;;;;;;;;;25.00;24.00;;;;;23.08;50.14;101053.03;112237;1256;19975;-39
2023/06/14 05:55:48;;;;;;;;;24.00;24.00;;;;;22.59;51.12;101057.04;112107;1263;20520;-39
2023/06/14 05:58:16;;;;;;;;;20.67;20.00;;;;;22.19;52.29;101057.30;112153;1263;19792;-39
2023/06/14 06:00:43;;;;;;;;;28.00;24.00;;;;;22.08;52.73;101061.45;112166;1263;20103;-39
2023/06/14 06:03:11;;;;;;;;;24.00;21.00;;;;;21.93;53.09;101064.86;112108;1263;19079;-39
2023/06/14 06:05:38;;;;;;;;;24.00;21.00;;;;;21.87;53.23;101068.22;112151;1263;19583;-38
2023/06/14 06:08:06;;;;;;;;;27.00;24.00;;;;;21.82;53.12;101061.56;112083;1248;19006;-37
2023/06/14 06:10:33;;;;;;;;;24.00;20.67;;;;;21.81;52.93;101063.48;112166;1247;20320;-38
2023/06/14 06:13:01;;;;;;;;;34.00;34.00;;;;;21.81;52.88;101060.02;112065;1263;20929;-36
2023/06/14 06:15:28;;;;;;;;;28.00;23.00;;;;;21.89;52.74;101061.33;112175;1248;18581;-35
2023/06/14 06:17:56;;;;;;;;;36.67;31.67;;;;;22.36;51.68;101061.33;112149;1263;18699;-35
2023/06/14 06:20:27;;;;;;;;;79.00;60.00;;;;;22.68;51.18;101055.14;112140;1247;21142;-36
2023/06/14 06:22:55;;;;;;;;;166.00;134.00;;;;;22.87;50.32;101055.05;112142;1263;18594;-36
2023/06/14 06:25:25;;;;;;;;;152.33;121.33;;;;;23.04;49.93;101069.14;112266;1263;18807;-35
2023/06/14 06:27:53;;;;;;;;;90.00;69.00;;;;;23.13;49.75;101075.79;112169;1263;21089;-36
2023/06/14 06:30:20;;;;;;;;;87.00;65.00;;;;;23.18;49.35;101078.70;112053;1248;21768;-37
2023/06/14 06:32:48;;;;;;;;;79.00;57.50;;;;;23.00;49.86;101079.38;112153;1263;21508;-36
2023/06/14 06:35:16;;;;;;;;;52.00;45.00;;;;;22.74;50.46;101080.88;112083;1263;19162;-37
2023/06/14 06:37:43;;;;;;;;;46.00;39.00;;;;;22.66;50.67;101073.90;112170;1263;21185;-37
2023/06/14 06:40:11;;;;;;;;;64.00;49.00;;;;;22.66;51.22;101072.09;112058;1263;20005;-37
2023/06/14 06:42:38;;;;;;;;;32.00;31.00;;;;;22.83;51.01;101063.55;112194;1247;20887;-38
2023/06/14 06:45:06;;;;;;;;;32.67;29.33;;;;;22.85;50.89;101064.92;112088;1263;20086;-38
2023/06/14 06:47:33;;;;;;;;;34.67;32.67;;;;;22.73;50.92;101070.08;112173;1247;20290;-38
2023/06/14 06:50:01;;;;;;;;;30.33;26.00;;;;;22.57;51.28;101067.73;112110;1250;22271;-37
2023/06/14 06:52:29;;;;;;;;;28.00;24.00;;;;;22.74;51.12;101068.41;112219;1263;18555;-40
2023/06/14 06:54:57;;;;;;;;;25.00;23.00;;;;;22.92;50.95;101069.30;112362;1263;18931;-39
2023/06/14 06:57:24;;;;;;;;;25.00;23.67;;;;;23.03;50.56;101079.52;112217;1263;19680;-38
2023/06/14 06:59:51;;;;;;;;;21.00;20.00;;;;;23.12;50.20;101081.37;112435;1263;18781;-38
2023/06/14 07:02:19;;;;;;;;;25.00;21.00;;;;;23.18;49.79;101075.77;112221;1263;20248;-38
2023/06/14 07:04:46;;;;;;;;;23.00;22.00;;;;;23.21;49.77;101075.95;112392;1251;20772;-37
2023/06/14 07:07:14;;;;;;;;;22.50;21.00;;;;;23.23;49.35;101072.45;112154;1263;18537;-38
2023/06/14 07:09:42;;;;;;;;;20.67;18.67;;;;;23.27;49.03;101068.56;112292;1247;19175;-39
2023/06/14 07:12:11;;;;;;;;;26.00;23.00;;;;;23.26;49.02;101066.81;112108;1263;20649;-38
2023/06/14 07:14:39;;;;;;;;;26.00;25.00;;;;;23.05;49.55;101066.73;112138;1263;20268;-39
2023/06/14 07:17:06;;;;;;;;;29.33;26.00;;;;;22.84;50.00;101074.61;112234;1263;20070;-40
2023/06/14 07:19:34;;;;;;;;;25.00;23.33;;;;;22.72;50.42;101075.88;112174;1263;21056;-39
2023/06/14 07:22:01;;;;;;;;;26.00;26.00;;;;;22.73;50.54;101081.86;112244;1248;18792;-39
2023/06/14 07:24:29;;;;;;;;;30.00;28.00;;;;;22.69;50.70;101084.74;112143;1257;20074;-39
2023/06/14 07:26:57;;;;;;;;;31.00;23.00;;;;;22.67;50.78;101084.34;112290;1255;19522;-37
2023/06/14 07:29:24;;;;;;;;;28.50;25.00;;;;;22.58;51.25;101090.19;112133;1263;20993;-37
2023/06/14 07:31:52;;;;;;;;;27.00;25.00;;;;;22.66;51.05;101094.40;112259;1263;20074;-37
2023/06/14 07:34:19;;;;;;;;;22.00;21.00;;;;;22.88;50.76;101089.37;112118;1263;21755;-37
2023/06/14 07:36:47;;;;;;;;;24.50;22.00;;;;;23.01;50.46;101087.17;112272;1263;18794;-39
2023/06/14 07:39:15;;;;;;;;;21.50;21.00;;;;;23.09;50.12;101088.16;112139;1263;21503;-38
2023/06/14 07:41:42;;;;;;;;;25.00;21.50;;;;;23.04;50.25;101085.98;112274;1247;20863;-38
2023/06/14 07:44:10;;;;;;;;;22.00;21.00;;;;;23.04;50.07;101083.27;112125;1263;19955;-39
2023/06/14 07:46:37;;;;;;;;;25.00;24.00;;;;;23.06;50.40;101088.36;112225;1263;20083;-38
2023/06/14 07:49:05;;;;;;;;;24.00;24.00;;;;;23.02;50.56;101094.83;112100;1263;19436;-38
2023/06/14 07:51:33;;;;;;;;;25.00;22.50;;;;;23.05;50.51;101097.89;112212;1263;18538;-38
2023/06/14 07:54:02;;;;;;;;;26.50;25.00;;;;;23.09;50.61;101103.67;112101;1263;20146;-39
2023/06/14 07:56:30;;;;;;;;;24.00;22.00;;;;;23.08;50.70;101105.02;112145;1263;21191;-39
2023/06/14 07:58:57;;;;;;;;;26.00;23.00;;;;;23.06;50.89;101111.08;112274;1263;18548;-39
2023/06/14 08:01:25;;;;;;;;;23.00;22.00;;;;;23.00;51.27;101115.30;112166;1263;20286;-41
2023/06/14 08:03:53;;;;;;;;;21.00;18.50;;;;;23.03;51.02;101115.98;112265;1263;19371;-40
2023/06/14 08:06:20;;;;;;;;;26.00;25.00;;;;;23.08;50.94;101117.38;112134;1257;18524;-40
2023/06/14 08:08:48;;;;;;;;;27.00;22.00;;;;;23.08;51.05;101116.77;112212;1263;20558;-40
2023/06/14 08:11:15;;;;;;;;;20.00;19.00;;;;;23.09;51.20;101117.28;112089;1263;20809;-40
2023/06/14 08:13:42;;;;;;;;;23.00;21.00;;;;;23.08;51.41;101116.67;112262;1263;19953;-39
2023/06/14 08:16:10;;;;;;;;;23.00;22.00;;;;;23.10;51.03;101123.17;112100;1263;18634;-38
2023/06/14 08:18:38;;;;;;;;;24.50;22.50;;;;;23.11;50.91;101125.88;112176;1263;20760;-39
2023/06/14 08:21:05;;;;;;;;;22.00;21.50;;;;;23.08;50.76;101125.77;112099;1256;18567;-39
2023/06/14 08:23:33;;;;;;;;;22.33;22.00;;;;;23.08;50.62;101126.60;112231;1263;20541;-38
2023/06/14 08:26:01;;;;;;;;;29.00;22.00;;;;;23.12;50.34;101134.10;112116;1256;20895;-39
2023/06/14 08:28:28;;;;;;;;;20.00;18.50;;;;;23.13;50.37;101129.93;112107;1247;19970;-39
2023/06/14 08:30:56;;;;;;;;;22.00;19.00;;;;;23.18;50.06;101130.14;112186;1247;20399;-39
2023/06/14 08:33:23;;;;;;;;;25.50;25.00;;;;;23.14;49.96;101123.96;112129;1263;21135;-39
2023/06/14 08:35:51;;;;;;;;;29.00;26.00;;;;;22.89;50.35;101126.75;112138;1263;18751;-39
2023/06/14 08:38:18;;;;;;;;;29.00;25.00;;;;;22.59;50.90;101121.94;112149;1263;18910;-38
2023/06/14 08:40:46;;;;;;;;;31.00;26.00;;;;;22.47;51.22;101116.06;112084;1263;20727;-39
2023/06/14 08:43:13;;;;;;;;;36.00;28.00;;;;;22.47;51.08;101109.70;112148;1263;21268;-38
2023/06/14 08:45:41;;;;;;;;;27.00;26.00;;;;;22.40;51.43;101100.88;112054;1263;18934;-39
2023/06/14 08:48:08;;;;;;;;;27.00;27.00;;;;;22.29;51.91;101097.41;112114;1263;22108;-39
2023/06/14 08:50:36;;;;;;;;;26.00;26.00;;;;;22.18;52.02;101096.17;112135;1247;20290;-39
2023/06/14 08:53:03;;;;;;;;;27.67;25.00;;;;;22.17;52.09;101095.36;112146;1263;19039;-39
2023/06/14 08:55:32;;;;;;;;;28.00;28.00;;;;;22.20;52.08;101092.65;112168;1263;19690;-38
2023/06/14 08:58:00;;;;;;;;;37.50;34.50;;;;;22.29;52.11;101087.65;112083;1263;18554;-39
2023/06/14 09:00:27;;;;;;;;;37.50;32.50;;;;;22.28;52.20;101080.84;112210;1263;19403;-38
2023/06/14 09:02:57;;;;;;;;;30.00;30.00;;;;;22.25;52.50;101074.10;112108;1263;20879;-38
2023/06/14 09:05:24;;;;;;;;;29.00;27.00;;;;;22.26;52.71;101071.27;112154;1263;18526;-39
2023/06/14 09:07:52;;;;;;;;;34.00;27.00;;;;;22.24;52.93;101077.48;112307;1263;20198;-40
2023/06/14 09:10:19;;;;;;;;;34.00;31.00;;;;;22.34;52.92;101080.26;112100;1263;20863;-39
2023/06/14 09:12:47;;;;;;;;;33.33;30.67;;;;;22.43;53.15;101083.66;112223;1263;19923;-39
2023/06/14 09:15:15;;;;;;;;;33.33;32.00;;;;;22.45;53.29;101087.73;112104;1247;20083;-39
2023/06/14 09:17:42;;;;;;;;;37.50;32.00;;;;;22.43;53.19;101094.34;112200;1263;19491;-39
2023/06/14 09:20:10;;;;;;;;;41.00;40.00;;;;;22.35;53.38;101102.02;112126;1263;20143;-39
2023/06/14 09:22:37;;;;;;;;;33.00;30.00;;;;;22.46;53.39;101112.38;112208;1263;20292;-38
2023/06/14 09:25:05;;;;;;;;;33.50;31.00;;;;;22.58;52.83;101111.08;112097;1248;19703;-38
2023/06/14 09:27:33;;;;;;;;;32.50;29.50;;;;;22.52;52.52;101108.70;112213;1263;18952;-38
2023/06/14 09:30:01;;;;;;;;;30.50;30.00;;;;;22.51;52.43;101107.10;112079;1248;20549;-38
2023/06/14 09:32:28;;;;;;;;;34.50;30.50;;;;;22.51;52.52;101108.53;112185;1263;20748;-39
2023/06/14 09:34:55;;;;;;;;;30.67;29.33;;;;;22.48;52.91;101107.90;112039;1263;21000;-38
2023/06/14 09:37:23;;;;;;;;;34.50;31.50;;;;;22.48;53.30;101112.88;112158;1247;19210;-38
2023/06/14 09:39:51;;;;;;;;;33.00;31.50;;;;;22.50;53.48;101111.23;112067;1263;19516;-38
2023/06/14 09:42:19;;;;;;;;;33.00;30.00;;;;;22.44;53.40;101112.97;112183;1263;18594;-38
2023/06/14 09:44:46;;;;;;;;;30.00;28.00;;;;;22.42;53.66;101111.04;112243;1263;18901;-38
2023/06/14 09:47:14;;;;;;;;;34.00;31.00;;;;;22.51;53.64;101111.74;112134;1263;20863;-38
2023/06/14 09:49:41;;;;;;;;;59.50;49.50;;;;;22.55;53.66;101107.52;112225;1247;18533;-40
2023/06/14 09:52:09;;;;;;;;;59.50;47.00;;;;;22.50;53.87;101113.21;112143;1263;18707;-39
2023/06/14 09:54:36;;;;;;;;;42.00;40.00;;;;;22.42;54.36;101110.83;112170;1263;19546;-39
2023/06/14 09:57:03;;;;;;;;;44.00;40.00;;;;;22.39;54.73;101116.83;112129;1263;18992;-39
2023/06/14 09:59:31;;;;;;;;;42.50;40.00;;;;;22.45;54.15;101113.88;112189;1263;20296;-39
2023/06/14 10:01:59;;;;;;;;;34.00;31.50;;;;;22.48;54.16;101110.70;112159;1263;19513;-39
2023/06/14 10:04:26;;;;;;;;;44.33;38.33;;;;;22.44;54.09;101112.64;112281;1263;18892;-38
2023/06/14 10:06:54;;;;;;;;;35.00;32.00;;;;;22.51;53.98;101115.63;112114;1263;18716;-39
2023/06/14 10:09:22;;;;;;;;;31.50;31.50;;;;;22.49;53.69;101113.15;112275;1263;20670;-39
2023/06/14 10:11:49;;;;;;;;;31.00;31.00;;;;;22.45;53.54;101111.64;112159;1263;18740;-39
2023/06/14 10:14:18;;;;;;;;;32.00;32.00;;;;;22.49;53.47;101107.10;112264;1263;20261;-40
2023/06/14 10:16:45;;;;;;;;;39.00;36.00;;;;;22.50;53.54;101105.66;112095;1248;20626;-39
2023/06/14 10:19:13;;;;;;;;;28.00;27.33;;;;;22.59;53.38;101099.77;112132;1263;20038;-39
2023/06/14 10:21:42;;;;;;;;;32.67;28.00;;;;;22.68;53.13;101101.79;112095;1263;19087;-39
2023/06/14 10:24:10;;;;;;;;;34.00;30.00;;;;;22.67;53.10;101097.54;112131;1263;19640;-40
2023/06/14 10:26:38;;;;;;;;;32.00;29.00;;;;;22.57;53.05;101096.34;112237;1263;20158;-39
2023/06/14 10:29:05;;;;;;;;;29.00;28.00;;;;;22.51;53.31;101096.30;112139;1262;18681;-41
2023/06/14 10:31:32;;;;;;;;;28.00;28.00;;;;;22.60;52.88;101096.63;112207;1247;20969;-39
2023/06/14 10:34:00;;;;;;;;;30.50;28.00;;;;;22.66;52.54;101091.84;112133;1263;20143;-37
2023/06/14 10:36:27;;;;;;;;;31.50;29.00;;;;;22.63;52.42;101097.05;112251;1263;20081;-38
2023/06/14 10:38:55;;;;;;;;;34.67;31.67;;;;;22.23;52.44;101095.37;112136;1263;20697;-38
2023/06/14 10:41:22;;;;;;;;;34.00;32.33;;;;;22.30;52.43;101093.66;112242;1263;18763;-40
2023/06/14 10:43:50;;;;;;;;;30.00;27.50;;;;;22.51;51.86;101093.05;112101;1263;20306;-39
2023/06/14 10:46:18;;;;;;;;;28.00;25.00;;;;;22.59;51.23;101090.11;112200;1263;20662;-38
2023/06/14 10:48:45;;;;;;;;;28.00;25.00;;;;;22.65;50.71;101088.84;112105;1260;20282;-38
2023/06/14 10:51:14;;;;;;;;;26.00;22.00;;;;;22.67;49.97;101088.05;112222;1263;19027;-38
2023/06/14 10:53:41;;;;;;;;;21.00;19.33;;;;;22.69;49.76;101088.33;112235;1263;19477;-38
2023/06/14 10:56:11;;;;;;;;;20.00;18.00;;;;;22.63;49.12;101087.76;112144;1263;18906;-38
2023/06/14 10:58:38;;;;;;;;;19.00;18.00;;;;;22.70;48.56;101086.45;112158;1263;19079;-38
2023/06/14 11:01:06;;;;;;;;;22.00;21.00;;;;;22.70;48.22;101083.92;112099;1263;20996;-37
2023/06/14 11:03:33;;;;;;;;;35.50;32.50;;;;;22.77;47.68;101081.35;112156;1263;20133;-38
2023/06/14 11:06:01;;;;;;;;;35.00;34.50;;;;;22.84;47.66;101075.11;112057;1256;20039;-38